Time;durP1;ratioP1;P1;durP2;ratioP2;P2;SDS_P1;SDS_P2;PMS_P1;PMS_P2;Temp;Humidity;BMP_temperature;BMP_pressure;BME280_temperature;BME280_humidity;BME280_pressure;Samples;Min_cycle;Max_cycle;Signal;HPM_P1;HPM_P2
2022/07/19 00:01:35;;;;;;;5.70;4.60;;;;;;;;;;5016156;28;20412;-68
2022/07/19 00:04:02;;;;;;;5.23;4.87;;;;;;;;;;5016049;28;20918;-68
2022/07/19 00:06:28;;;;;;;4.73;4.43;;;;;;;;;;5016090;28;20495;-68
2022/07/19 00:08:54;;;;;;;5.57;4.60;;;;;;;;;;5015955;28;20419;-68
2022/07/19 00:11:20;;;;;;;5.80;4.67;;;;;;;;;;5015921;28;20922;-68
2022/07/19 00:13:46;;;;;;;15.17;5.40;;;;;;;;;;5015940;28;20413;-69
2022/07/19 00:16:12;;;;;;;4.97;4.57;;;;;;;;;;5015818;28;20423;-68
2022/07/19 00:18:38;;;;;;;5.93;5.43;;;;;;;;;;5015701;28;20538;-68
2022/07/19 00:21:04;;;;;;;8.40;5.20;;;;;;;;;;5015691;28;20884;-67
2022/07/19 00:23:30;;;;;;;5.60;5.10;;;;;;;;;;5015743;28;20423;-68
2022/07/19 00:25:56;;;;;;;10.23;5.40;;;;;;;;;;5015599;28;20418;-68
2022/07/19 00:28:22;;;;;;;4.90;4.60;;;;;;;;;;5015016;28;20507;-68
2022/07/19 00:30:48;;;;;;;8.07;5.80;;;;;;;;;;5015659;28;20884;-68
2022/07/19 00:33:14;;;;;;;5.53;5.03;;;;;;;;;;5015567;28;20782;-68
2022/07/19 00:35:40;;;;;;;5.37;4.80;;;;;;;;;;5015593;28;20411;-67
2022/07/19 00:38:07;;;;;;;5.17;4.73;;;;;;;;;;4997799;28;20494;-68
2022/07/19 00:40:33;;;;;;;7.50;5.10;;;;;;;;;;5015464;28;20447;-68
2022/07/19 00:42:59;;;;;;;5.07;4.87;;;;;;;;;;5015428;28;20505;-68
2022/07/19 00:45:25;;;;;;;4.80;4.57;;;;;;;;;;5015438;28;20443;-68
2022/07/19 00:47:51;;;;;;;5.50;5.20;;;;;;;;;;4997826;28;20527;-69
2022/07/19 00:50:18;;;;;;;4.87;4.70;;;;;;;;;;4997751;28;20515;-69
2022/07/19 00:52:46;;;;;;;5.37;4.90;;;;;;;;;;5015196;28;20422;-69
2022/07/19 00:55:12;;;;;;;4.90;4.70;;;;;;;;;;5015145;28;20409;-69
2022/07/19 00:57:38;;;;;;;6.03;5.47;;;;;;;;;;5015206;28;20518;-69
2022/07/19 01:00:05;;;;;;;7.03;5.60;;;;;;;;;;5015149;28;20464;-69
2022/07/19 01:02:31;;;;;;;5.50;4.97;;;;;;;;;;5015001;28;20421;-69
2022/07/19 01:04:57;;;;;;;4.50;4.30;;;;;;;;;;5015039;28;20407;-69
2022/07/19 01:07:24;;;;;;;5.07;4.87;;;;;;;;;;5014924;28;20421;-69
2022/07/19 01:09:51;;;;;;;4.93;4.70;;;;;;;;;;5014915;28;20918;-69
2022/07/19 01:12:17;;;;;;;5.87;5.47;;;;;;;;;;5014877;28;20769;-70
2022/07/19 01:14:43;;;;;;;6.40;5.03;;;;;;;;;;5014815;28;20408;-69
2022/07/19 01:17:10;;;;;;;9.43;5.40;;;;;;;;;;5014640;28;20467;-68
2022/07/19 01:19:36;;;;;;;6.30;5.70;;;;;;;;;;5014665;28;20417;-68
2022/07/19 01:22:02;;;;;;;7.17;5.10;;;;;;;;;;4997077;28;20414;-68
2022/07/19 01:24:28;;;;;;;5.47;4.97;;;;;;;;;;5014672;28;20424;-68
2022/07/19 01:26:54;;;;;;;5.43;4.93;;;;;;;;;;4997021;28;20495;-68
2022/07/19 01:29:20;;;;;;;8.20;5.33;;;;;;;;;;5014515;28;20410;-68
2022/07/19 01:31:46;;;;;;;5.63;5.20;;;;;;;;;;5014600;28;20417;-69
2022/07/19 01:34:12;;;;;;;6.50;5.30;;;;;;;;;;5014430;28;20941;-68
2022/07/19 01:36:38;;;;;;;5.40;5.20;;;;;;;;;;5014332;28;20457;-68
2022/07/19 01:39:04;;;;;;;5.93;5.53;;;;;;;;;;4996646;28;20462;-69
2022/07/19 01:41:30;;;;;;;5.17;4.73;;;;;;;;;;5014392;28;20776;-69
2022/07/19 01:43:56;;;;;;;6.27;5.80;;;;;;;;;;5014298;28;21160;-69
2022/07/19 01:46:22;;;;;;;8.40;5.70;;;;;;;;;;5014242;28;20414;-69
2022/07/19 01:48:48;;;;;;;7.23;4.87;;;;;;;;;;5014013;28;20812;-69
2022/07/19 01:51:14;;;;;;;5.60;5.30;;;;;;;;;;4996535;28;20445;-69
2022/07/19 01:53:40;;;;;;;5.07;4.97;;;;;;;;;;5014114;28;20415;-68
2022/07/19 01:56:07;;;;;;;5.27;4.97;;;;;;;;;;5014041;28;20452;-69
2022/07/19 01:58:33;;;;;;;6.10;5.70;;;;;;;;;;5014024;28;20482;-69
2022/07/19 02:00:59;;;;;;;5.27;4.93;;;;;;;;;;5014029;28;20412;-69
2022/07/19 02:03:25;;;;;;;9.30;4.63;;;;;;;;;;5013953;28;20487;-68
2022/07/19 02:05:51;;;;;;;5.57;5.17;;;;;;;;;;5013889;28;20453;-69
2022/07/19 02:08:17;;;;;;;5.10;4.63;;;;;;;;;;5013884;28;20444;-68
2022/07/19 02:10:43;;;;;;;6.80;5.43;;;;;;;;;;5013834;28;20408;-68
2022/07/19 02:13:09;;;;;;;5.67;5.37;;;;;;;;;;4996187;28;20420;-69
2022/07/19 02:15:35;;;;;;;5.53;5.17;;;;;;;;;;5013977;28;20420;-68
2022/07/19 02:18:01;;;;;;;4.93;4.40;;;;;;;;;;5013609;28;20567;-68
2022/07/19 02:20:27;;;;;;;5.20;4.90;;;;;;;;;;5013771;28;20770;-69
2022/07/19 02:22:53;;;;;;;5.07;4.70;;;;;;;;;;5013713;28;20419;-69
2022/07/19 02:25:19;;;;;;;4.83;4.63;;;;;;;;;;5013679;28;20442;-69
2022/07/19 02:27:45;;;;;;;5.70;5.27;;;;;;;;;;5013905;28;20424;-69
2022/07/19 02:30:12;;;;;;;5.43;4.93;;;;;;;;;;5013617;28;20415;-69
2022/07/19 02:32:38;;;;;;;5.03;4.73;;;;;;;;;;5013535;28;20423;-69
2022/07/19 02:35:06;;;;;;;5.63;4.97;;;;;;;;;;5013527;28;20401;-69
2022/07/19 02:37:32;;;;;;;5.37;5.07;;;;;;;;;;5013393;28;20460;-68
2022/07/19 02:39:58;;;;;;;8.20;5.07;;;;;;;;;;5013516;28;20423;-68
2022/07/19 02:42:23;;;;;;;6.97;5.50;;;;;;;;;;5013492;28;20511;-68
2022/07/19 02:44:50;;;;;;;4.87;4.67;;;;;;;;;;5013734;28;20812;-69
2022/07/19 02:47:16;;;;;;;5.40;5.00;;;;;;;;;;5013381;28;20411;-69
2022/07/19 02:49:42;;;;;;;5.70;5.20;;;;;;;;;;5013637;28;20484;-69
2022/07/19 02:52:08;;;;;;;5.50;5.30;;;;;;;;;;5017491;28;20411;-67
2022/07/19 02:54:34;;;;;;;5.70;5.30;;;;;;;;;;5017625;28;20415;-67
2022/07/19 02:57:00;;;;;;;5.43;5.20;;;;;;;;;;4999668;28;20489;-67
2022/07/19 02:59:26;;;;;;;6.10;5.20;;;;;;;;;;5017567;28;20413;-67
2022/07/19 03:01:52;;;;;;;10.67;5.60;;;;;;;;;;5017467;28;20808;-66
2022/07/19 03:04:17;;;;;;;5.80;5.30;;;;;;;;;;5017312;28;20394;-67
2022/07/19 03:06:43;;;;;;;6.63;6.23;;;;;;;;;;5017159;28;20407;-67
2022/07/19 03:09:11;;;;;;;4.67;4.50;;;;;;;;;;5017146;28;20899;-67
2022/07/19 03:11:37;;;;;;;5.63;5.10;;;;;;;;;;5017352;28;20410;-66
2022/07/19 03:14:03;;;;;;;6.40;5.90;;;;;;;;;;5017048;28;20398;-67
2022/07/19 03:16:29;;;;;;;6.80;6.20;;;;;;;;;;5016829;28;20505;-67
2022/07/19 03:18:55;;;;;;;5.67;5.20;;;;;;;;;;5016965;28;20421;-67
2022/07/19 03:21:21;;;;;;;5.20;4.90;;;;;;;;;;5016928;28;20469;-67
2022/07/19 03:23:47;;;;;;;6.33;5.73;;;;;;;;;;5016869;28;20451;-68
2022/07/19 03:26:13;;;;;;;6.37;5.87;;;;;;;;;;5016778;28;20433;-67
2022/07/19 03:28:39;;;;;;;6.00;5.40;;;;;;;;;;5016748;28;20472;-68
2022/07/19 03:31:05;;;;;;;6.33;5.73;;;;;;;;;;5016748;28;20466;-67
2022/07/19 03:33:31;;;;;;;6.53;5.93;;;;;;;;;;4998931;28;20785;-67
2022/07/19 03:35:57;;;;;;;5.50;5.20;;;;;;;;;;5016676;28;20429;-67
2022/07/19 03:38:23;;;;;;;6.87;6.33;;;;;;;;;;5016517;28;20469;-67
2022/07/19 03:40:49;;;;;;;8.47;5.90;;;;;;;;;;5016568;28;20415;-66
2022/07/19 03:43:16;;;;;;;5.27;4.87;;;;;;;;;;5016661;28;20464;-66
2022/07/19 03:45:42;;;;;;;5.83;5.30;;;;;;;;;;5016530;28;20407;-65
2022/07/19 03:48:08;;;;;;;8.43;5.40;;;;;;;;;;5016558;28;20465;-66
2022/07/19 03:50:34;;;;;;;5.43;5.23;;;;;;;;;;5016406;28;20908;-66
2022/07/19 03:53:00;;;;;;;5.90;5.50;;;;;;;;;;5016457;28;20423;-65
2022/07/19 03:55:26;;;;;;;7.03;5.57;;;;;;;;;;5016310;28;20421;-65
2022/07/19 03:57:52;;;;;;;69.37;54.23;;;;;;;;;;5016155;28;20470;-66
2022/07/19 04:00:18;;;;;;;6.57;6.27;;;;;;;;;;5016289;28;20773;-65
2022/07/19 04:02:44;;;;;;;5.60;5.20;;;;;;;;;;4997402;28;20876;-66
2022/07/19 04:05:11;;;;;;;19.20;14.70;;;;;;;;;;5016085;28;20445;-63
2022/07/19 04:07:38;;;;;;;25.53;21.20;;;;;;;;;;5016076;28;20505;-63
2022/07/19 04:10:04;;;;;;;6.60;6.20;;;;;;;;;;5015971;28;20904;-64
2022/07/19 04:12:30;;;;;;;5.90;5.60;;;;;;;;;;5016016;28;20449;-64
2022/07/19 04:14:56;;;;;;;8.60;6.23;;;;;;;;;;5015862;28;20438;-64
2022/07/19 04:17:23;;;;;;;6.70;6.30;;;;;;;;;;5015738;28;20503;-64
2022/07/19 04:19:49;;;;;;;5.50;5.10;;;;;;;;;;5015881;28;20404;-64
2022/07/19 04:22:15;;;;;;;16.60;8.83;;;;;;;;;;5015765;28;20441;-64
2022/07/19 04:24:41;;;;;;;7.13;6.20;;;;;;;;;;5015683;28;20410;-63
2022/07/19 04:27:07;;;;;;;8.20;5.87;;;;;;;;;;5015825;28;20471;-65
2022/07/19 04:29:33;;;;;;;6.07;5.73;;;;;;;;;;5015626;28;20414;-65
2022/07/19 04:31:59;;;;;;;6.33;5.40;;;;;;;;;;5015506;28;20908;-64
2022/07/19 04:34:25;;;;;;;5.70;5.30;;;;;;;;;;5015485;28;20407;-65
2022/07/19 04:36:51;;;;;;;5.83;5.53;;;;;;;;;;4997832;28;20473;-64
2022/07/19 04:39:17;;;;;;;6.83;6.00;;;;;;;;;;5015742;28;20501;-64
2022/07/19 04:41:43;;;;;;;8.03;5.30;;;;;;;;;;5015451;28;20895;-65
2022/07/19 04:44:09;;;;;;;5.70;5.30;;;;;;;;;;5015371;28;20410;-65
2022/07/19 04:46:35;;;;;;;6.80;6.10;;;;;;;;;;5015287;28;20418;-65
2022/07/19 04:49:01;;;;;;;6.27;5.87;;;;;;;;;;5015098;28;20469;-64
2022/07/19 04:51:27;;;;;;;8.47;6.50;;;;;;;;;;5015285;28;20417;-67
2022/07/19 04:53:53;;;;;;;7.20;5.57;;;;;;;;;;4997702;28;20461;-68
2022/07/19 04:56:19;;;;;;;6.07;5.23;;;;;;;;;;4997671;28;20430;-65
2022/07/19 04:58:45;;;;;;;9.00;5.80;;;;;;;;;;5014975;28;20524;-66
2022/07/19 05:01:11;;;;;;;6.93;6.33;;;;;;;;;;5015055;28;20406;-65
2022/07/19 05:03:37;;;;;;;6.90;6.10;;;;;;;;;;5015064;28;20417;-66
2022/07/19 05:06:03;;;;;;;6.37;5.90;;;;;;;;;;5015075;28;20881;-65
2022/07/19 05:08:29;;;;;;;6.90;6.07;;;;;;;;;;5015004;28;20401;-65
2022/07/19 05:10:55;;;;;;;6.20;5.70;;;;;;;;;;5015101;28;20772;-67
2022/07/19 05:13:21;;;;;;;6.90;6.50;;;;;;;;;;4996975;28;20425;-64
2022/07/19 05:15:47;;;;;;;6.60;6.10;;;;;;;;;;5014881;28;20406;-65
2022/07/19 05:18:13;;;;;;;7.90;5.63;;;;;;;;;;5014604;28;20489;-68
2022/07/19 05:20:39;;;;;;;6.93;6.20;;;;;;;;;;5014750;28;20751;-69
2022/07/19 05:23:07;;;;;;;6.37;5.60;;;;;;;;;;5014657;28;20418;-66
2022/07/19 05:25:33;;;;;;;7.53;6.80;;;;;;;;;;5014669;28;20437;-66
2022/07/19 05:27:59;;;;;;;8.20;7.17;;;;;;;;;;5014459;28;20410;-66
2022/07/19 05:30:25;;;;;;;6.20;5.83;;;;;;;;;;5014635;28;20502;-66
2022/07/19 05:32:51;;;;;;;13.87;6.40;;;;;;;;;;5014474;28;20929;-66
2022/07/19 05:35:17;;;;;;;10.13;6.20;;;;;;;;;;5014501;28;20401;-66
2022/07/19 05:37:43;;;;;;;6.07;5.53;;;;;;;;;;5014297;28;20533;-66
2022/07/19 05:40:09;;;;;;;9.50;6.23;;;;;;;;;;4996613;28;20516;-68
2022/07/19 05:42:35;;;;;;;7.20;5.60;;;;;;;;;;5014359;28;20786;-68
2022/07/19 05:45:01;;;;;;;7.50;6.07;;;;;;;;;;5014204;28;20401;-68
2022/07/19 05:47:27;;;;;;;6.03;5.73;;;;;;;;;;5014207;28;20421;-68
2022/07/19 05:49:53;;;;;;;9.80;5.90;;;;;;;;;;5014052;28;20985;-68
2022/07/19 05:52:19;;;;;;;5.87;5.40;;;;;;;;;;5014258;28;20775;-68
2022/07/19 05:54:45;;;;;;;6.30;5.97;;;;;;;;;;5014232;28;20420;-68
2022/07/19 05:57:11;;;;;;;6.60;6.10;;;;;;;;;;5014105;28;20563;-69
2022/07/19 05:59:37;;;;;;;14.63;6.17;;;;;;;;;;5014134;28;20393;-68
2022/07/19 06:02:04;;;;;;;5.60;5.30;;;;;;;;;;5014130;28;20527;-68
2022/07/19 06:04:30;;;;;;;6.40;6.10;;;;;;;;;;5014158;28;20434;-68
2022/07/19 06:06:56;;;;;;;5.60;4.97;;;;;;;;;;5014062;28;20422;-68
2022/07/19 06:09:21;;;;;;;8.33;5.70;;;;;;;;;;5014022;28;20410;-68
2022/07/19 06:11:49;;;;;;;10.97;5.70;;;;;;;;;;5013938;28;20763;-68
2022/07/19 06:14:14;;;;;;;11.50;5.67;;;;;;;;;;5013881;28;20393;-68
2022/07/19 06:16:40;;;;;;;7.03;5.10;;;;;;;;;;5013780;28;20426;-68
2022/07/19 06:19:07;;;;;;;7.00;5.10;;;;;;;;;;5013897;28;20468;-68
2022/07/19 06:21:33;;;;;;;9.10;5.67;;;;;;;;;;5013943;28;20499;-68
2022/07/19 06:23:59;;;;;;;6.47;4.80;;;;;;;;;;4996104;28;20432;-68
2022/07/19 06:26:26;;;;;;;9.83;5.17;;;;;;;;;;5013379;28;20404;-68
2022/07/19 06:28:52;;;;;;;9.33;5.63;;;;;;;;;;5013721;28;20875;-68
2022/07/19 06:31:18;;;;;;;5.27;4.87;;;;;;;;;;5013825;28;20471;-68
2022/07/19 06:33:45;;;;;;;5.20;4.80;;;;;;;;;;5013674;28;20442;-68
2022/07/19 06:36:11;;;;;;;15.07;6.07;;;;;;;;;;4996097;28;20427;-69
2022/07/19 06:38:37;;;;;;;7.47;5.07;;;;;;;;;;5013874;28;20463;-68
2022/07/19 06:41:03;;;;;;;9.63;5.57;;;;;;;;;;4995950;28;20846;-68
2022/07/19 06:43:30;;;;;;;5.63;5.10;;;;;;;;;;5013550;28;20421;-66
2022/07/19 06:45:55;;;;;;;5.93;5.37;;;;;;;;;;5013558;28;20410;-66
2022/07/19 06:48:22;;;;;;;5.50;5.17;;;;;;;;;;5013470;28;20469;-66
2022/07/19 06:50:48;;;;;;;7.10;5.13;;;;;;;;;;5013548;28;20407;-66
2022/07/19 06:53:14;;;;;;;13.00;4.80;;;;;;;;;;5013346;28;20421;-66
2022/07/19 06:55:40;;;;;;;9.30;4.97;;;;;;;;;;5013402;28;20413;-66
2022/07/19 06:58:06;;;;;;;5.40;5.00;;;;;;;;;;5013303;28;20523;-67
2022/07/19 07:00:32;;;;;;;4.50;4.20;;;;;;;;;;5013252;28;20404;-67
2022/07/19 07:02:58;;;;;;;4.20;3.90;;;;;;;;;;5013141;28;20929;-66
2022/07/19 07:05:24;;;;;;;4.00;3.80;;;;;;;;;;4995675;28;20414;-67
2022/07/19 07:07:51;;;;;;;5.03;4.63;;;;;;;;;;5013206;28;20423;-67
2022/07/19 07:10:17;;;;;;;4.40;4.20;;;;;;;;;;4995753;28;20412;-67
2022/07/19 07:12:43;;;;;;;3.60;3.40;;;;;;;;;;5013341;28;20418;-67
2022/07/19 07:15:09;;;;;;;3.83;3.63;;;;;;;;;;4995748;28;20529;-67
2022/07/19 07:17:36;;;;;;;5.37;3.53;;;;;;;;;;5013138;28;20485;-67
2022/07/19 07:20:03;;;;;;;4.77;4.30;;;;;;;;;;5013118;28;20421;-67
2022/07/19 07:22:29;;;;;;;3.97;3.63;;;;;;;;;;5013122;28;20418;-67
2022/07/19 07:24:55;;;;;;;4.53;3.97;;;;;;;;;;5013244;28;20416;-67
2022/07/19 07:27:21;;;;;;;7.60;3.50;;;;;;;;;;5013166;28;20415;-67
2022/07/19 07:29:47;;;;;;;5.63;3.83;;;;;;;;;;5013185;28;20892;-67
2022/07/19 07:32:13;;;;;;;3.30;3.20;;;;;;;;;;5013113;28;20472;-67
2022/07/19 07:34:39;;;;;;;4.10;3.90;;;;;;;;;;5013478;28;20431;-67
2022/07/19 07:37:05;;;;;;;5.53;3.73;;;;;;;;;;4997821;28;20534;-67
2022/07/19 07:39:31;;;;;;;4.53;4.27;;;;;;;;;;5017063;28;20819;-67
2022/07/19 07:41:57;;;;;;;7.60;4.13;;;;;;;;;;5016711;28;20483;-67
2022/07/19 07:44:23;;;;;;;7.00;4.17;;;;;;;;;;5016614;28;20422;-68
2022/07/19 07:46:49;;;;;;;4.43;4.03;;;;;;;;;;4998930;28;20449;-68
2022/07/19 07:49:15;;;;;;;4.73;4.07;;;;;;;;;;5016327;28;20470;-67
2022/07/19 07:51:41;;;;;;;4.57;4.13;;;;;;;;;;5016483;28;20411;-67
2022/07/19 07:54:07;;;;;;;4.30;3.83;;;;;;;;;;5016466;28;20422;-68
2022/07/19 07:56:33;;;;;;;4.00;3.80;;;;;;;;;;4998744;28;20914;-68
2022/07/19 07:58:59;;;;;;;4.70;4.20;;;;;;;;;;5016313;28;20421;-68
2022/07/19 08:01:25;;;;;;;8.03;4.03;;;;;;;;;;5016265;28;20431;-68
2022/07/19 08:03:50;;;;;;;5.23;3.70;;;;;;;;;;5016291;28;20412;-68
2022/07/19 08:06:17;;;;;;;6.40;3.90;;;;;;;;;;5016251;28;20979;-68
2022/07/19 08:08:43;;;;;;;4.67;4.27;;;;;;;;;;5016399;28;20775;-67
2022/07/19 08:11:10;;;;;;;6.87;3.87;;;;;;;;;;5016387;28;20411;-68
2022/07/19 08:13:36;;;;;;;4.77;3.60;;;;;;;;;;5016263;28;20407;-68
2022/07/19 08:16:02;;;;;;;3.87;3.43;;;;;;;;;;5016035;28;20424;-68
2022/07/19 08:18:28;;;;;;;3.90;3.80;;;;;;;;;;5015859;28;20472;-68
2022/07/19 08:20:54;;;;;;;8.77;3.30;;;;;;;;;;5016027;28;20461;-68
2022/07/19 08:23:20;;;;;;;9.30;4.07;;;;;;;;;;5016221;28;20920;-68
2022/07/19 08:25:46;;;;;;;4.47;4.07;;;;;;;;;;5015835;28;20408;-68
2022/07/19 08:28:12;;;;;;;5.87;3.33;;;;;;;;;;5015744;28;20446;-68
2022/07/19 08:30:38;;;;;;;7.50;3.87;;;;;;;;;;5015916;28;20423;-68
2022/07/19 08:33:08;;;;;;;4.47;4.07;;;;;;;;;;5015669;28;20897;-68
2022/07/19 08:35:34;;;;;;;6.43;3.90;;;;;;;;;;5015679;28;20477;-68
2022/07/19 08:38:00;;;;;;;4.20;3.97;;;;;;;;;;5015606;28;20559;-68
2022/07/19 08:40:26;;;;;;;8.53;3.70;;;;;;;;;;5015830;28;20446;-68
2022/07/19 08:42:52;;;;;;;4.10;3.60;;;;;;;;;;5015441;28;20421;-68
2022/07/19 08:45:18;;;;;;;3.83;3.27;;;;;;;;;;5015347;28;20439;-68
2022/07/19 08:47:45;;;;;;;4.90;3.60;;;;;;;;;;5014466;28;20926;-68
2022/07/19 08:50:11;;;;;;;4.00;3.70;;;;;;;;;;5015278;28;20453;-68
2022/07/19 08:52:37;;;;;;;3.50;3.30;;;;;;;;;;4997702;28;20460;-68
2022/07/19 08:55:04;;;;;;;8.00;3.40;;;;;;;;;;5015229;28;20425;-68
2022/07/19 09:00:15;;;;;;;5.83;3.50;;;;;;;;;;5015205;28;20463;-68
2022/07/19 09:02:51;;;;;;;4.43;3.07;;;;;;;;;;5014983;28;20520;-68
2022/07/19 09:05:17;;;;;;;4.30;3.30;;;;;;;;;;5015042;28;20428;-68
2022/07/19 09:07:59;;;;;;;5.00;3.70;;;;;;;;;;5014918;28;20425;-68
2022/07/19 09:10:25;;;;;;;3.13;2.93;;;;;;;;;;5014795;28;20894;-68
2022/07/19 09:13:05;;;;;;;6.33;3.20;;;;;;;;;;5014893;28;20417;-68
2022/07/19 09:15:38;;;;;;;6.23;3.57;;;;;;;;;;5014908;28;20931;-69
2022/07/19 09:18:11;;;;;;;5.90;3.47;;;;;;;;;;5014981;28;20477;-68
2022/07/19 09:20:38;;;;;;;8.20;3.60;;;;;;;;;;5014943;28;20393;-68
2022/07/19 09:23:04;;;;;;;6.10;3.27;;;;;;;;;;5014801;28;20401;-69
2022/07/19 09:25:44;;;;;;;7.40;3.47;;;;;;;;;;5014785;28;20409;-68
2022/07/19 09:28:11;;;;;;;13.20;3.63;;;;;;;;;;5014660;28;20860;-68
2022/07/19 09:30:43;;;;;;;5.33;3.40;;;;;;;;;;4997050;28;20471;-68
2022/07/19 09:33:14;;;;;;;4.00;3.57;;;;;;;;;;5014577;28;20972;-68
2022/07/19 09:35:42;;;;;;;9.27;3.50;;;;;;;;;;5014537;28;20448;-68
2022/07/19 09:38:22;;;;;;;8.37;3.43;;;;;;;;;;5014535;28;20499;-69
2022/07/19 09:41:08;;;;;;;3.60;3.30;;;;;;;;;;5014485;28;20451;-69
2022/07/19 09:43:52;;;;;;;5.77;3.47;;;;;;;;;;5014450;28;20403;-68
2022/07/19 09:46:27;;;;;;;3.93;3.70;;;;;;;;;;5014463;28;20441;-69
2022/07/19 09:48:53;;;;;;;6.40;3.50;;;;;;;;;;5014192;28;21005;-69
2022/07/19 09:51:21;;;;;;;3.43;3.13;;;;;;;;;;5014364;28;20405;-69
2022/07/19 09:53:47;;;;;;;3.40;3.10;;;;;;;;;;5014296;28;20410;-69
2022/07/19 09:56:13;;;;;;;12.17;3.70;;;;;;;;;;5014241;28;20412;-69
2022/07/19 09:58:40;;;;;;;2.90;2.67;;;;;;;;;;5013913;28;20567;-69
2022/07/19 10:01:06;;;;;;;3.07;2.90;;;;;;;;;;5013413;28;20413;-68
2022/07/19 10:03:32;;;;;;;4.67;3.00;;;;;;;;;;5014028;28;20417;-69
2022/07/19 10:05:58;;;;;;;9.00;3.17;;;;;;;;;;4996543;28;20420;-69
2022/07/19 10:08:24;;;;;;;6.13;2.83;;;;;;;;;;5014103;28;20413;-68
2022/07/19 10:10:50;;;;;;;7.77;3.20;;;;;;;;;;5013996;28;20416;-69
2022/07/19 10:13:17;;;;;;;3.23;3.03;;;;;;;;;;5013979;28;20405;-69
2022/07/19 10:15:45;;;;;;;4.57;2.87;;;;;;;;;;5013912;28;20912;-69
2022/07/19 10:18:22;;;;;;;8.23;3.03;;;;;;;;;;5013826;28;20508;-69
2022/07/19 10:20:48;;;;;;;6.80;2.73;;;;;;;;;;5013961;28;20440;-69
2022/07/19 10:23:14;;;;;;;5.43;3.33;;;;;;;;;;5014055;28;20536;-69
2022/07/19 10:25:44;;;;;;;4.40;2.50;;;;;;;;;;5013986;28;20491;-68
2022/07/19 10:28:27;;;;;;;12.57;2.87;;;;;;;;;;5013716;28;20986;-69
2022/07/19 10:30:53;;;;;;;3.00;2.80;;;;;;;;;;5014084;28;20488;-68
2022/07/19 10:33:27;;;;;;;10.37;3.20;;;;;;;;;;5013699;28;20425;-68
2022/07/19 10:35:53;;;;;;;5.07;3.00;;;;;;;;;;5013721;28;20459;-69
2022/07/19 10:38:19;;;;;;;7.97;2.40;;;;;;;;;;5013558;28;20468;-69
2022/07/19 10:40:46;;;;;;;4.23;3.00;;;;;;;;;;5013689;28;20445;-68
2022/07/19 10:43:15;;;;;;;3.80;3.33;;;;;;;;;;5013648;28;20413;-69
2022/07/19 10:45:57;;;;;;;3.87;2.73;;;;;;;;;;5013890;28;20419;-69
2022/07/19 10:48:41;;;;;;;7.23;2.83;;;;;;;;;;5013421;28;20526;-69
2022/07/19 10:51:10;;;;;;;4.10;3.00;;;;;;;;;;5013665;28;20528;-69
2022/07/19 10:53:42;;;;;;;3.13;2.87;;;;;;;;;;5013562;28;20412;-69
2022/07/19 10:56:14;;;;;;;6.07;2.90;;;;;;;;;;5013399;28;20418;-68
2022/07/19 10:58:50;;;;;;;4.03;2.50;;;;;;;;;;5013402;28;20471;-67
2022/07/19 11:01:18;;;;;;;3.67;2.70;;;;;;;;;;5013410;28;20409;-68
2022/07/19 11:03:45;;;;;;;7.57;3.33;;;;;;;;;;5013368;28;20424;-67
2022/07/19 11:06:19;;;;;;;4.07;2.63;;;;;;;;;;5013371;28;20408;-67
2022/07/19 11:08:45;;;;;;;3.90;2.63;;;;;;;;;;5013411;28;20413;-70
2022/07/19 11:11:19;;;;;;;2.70;2.57;;;;;;;;;;5014493;28;20402;-69
2022/07/19 11:13:47;;;;;;;4.20;2.97;;;;;;;;;;5017172;28;20404;-69
2022/07/19 11:16:13;;;;;;;4.03;2.60;;;;;;;;;;5017162;28;20413;-69
2022/07/19 11:18:39;;;;;;;13.43;2.70;;;;;;;;;;5016884;28;20505;-68
2022/07/19 11:21:06;;;;;;;10.10;2.47;;;;;;;;;;5017360;28;20405;-69
2022/07/19 11:23:35;;;;;;;2.30;2.17;;;;;;;;;;5017117;28;20421;-68
2022/07/19 11:26:18;;;;;;;7.10;2.53;;;;;;;;;;5016960;28;20412;-70
2022/07/19 11:28:45;;;;;;;8.93;2.90;;;;;;;;;;4999177;28;20424;-68
2022/07/19 11:31:20;;;;;;;3.80;2.67;;;;;;;;;;5016813;28;20410;-69
2022/07/19 11:33:47;;;;;;;2.90;2.70;;;;;;;;;;5016851;28;20416;-71
2022/07/19 11:36:17;;;;;;;3.13;2.60;;;;;;;;;;5016879;28;20417;-69
2022/07/19 11:38:47;;;;;;;11.47;2.63;;;;;;;;;;5016671;28;20468;-68
2022/07/19 11:41:21;;;;;;;9.07;2.60;;;;;;;;;;5016593;28;20409;-70
2022/07/19 11:43:52;;;;;;;3.27;2.70;;;;;;;;;;5016623;28;20401;-69
2022/07/19 11:46:20;;;;;;;2.70;2.60;;;;;;;;;;5016831;28;20452;-66
2022/07/19 11:48:46;;;;;;;3.10;2.80;;;;;;;;;;5016389;28;20476;-70
2022/07/19 11:51:12;;;;;;;3.13;2.50;;;;;;;;;;5016525;28;20764;-68
2022/07/19 11:53:39;;;;;;;3.60;2.67;;;;;;;;;;5016571;28;20180;-69
2022/07/19 11:56:06;;;;;;;4.07;3.13;;;;;;;;;;5016453;28;20196;-70
2022/07/19 11:58:32;;;;;;;3.93;2.77;;;;;;;;;;4998701;28;20510;-69
2022/07/19 12:01:02;;;;;;;2.60;2.40;;;;;;;;;;5016385;28;20413;-71
2022/07/19 12:03:28;;;;;;;9.10;3.33;;;;;;;;;;5016185;28;20786;-70
2022/07/19 12:05:58;;;;;;;3.90;2.80;;;;;;;;;;5016525;28;20405;-72
2022/07/19 12:08:33;;;;;;;4.53;2.70;;;;;;;;;;5016214;28;20433;-70
2022/07/19 12:10:59;;;;;;;8.97;2.33;;;;;;;;;;4998601;28;20419;-72
2022/07/19 12:13:34;;;;;;;4.30;2.50;;;;;;;;;;5016122;28;20810;-71
2022/07/19 12:16:01;;;;;;;2.53;2.43;;;;;;;;;;5016133;28;20408;-71
2022/07/19 12:18:46;;;;;;;4.60;2.60;;;;;;;;;;5015957;28;20476;-71
2022/07/19 12:21:22;;;;;;;5.07;2.77;;;;;;;;;;4998440;28;20456;-70
2022/07/19 12:24:07;;;;;;;5.40;2.67;;;;;;;;;;5015038;28;20500;-72
2022/07/19 12:26:33;;;;;;;5.70;2.23;;;;;;;;;;5015919;28;20417;-72
2022/07/19 12:28:59;;;;;;;9.17;2.70;;;;;;;;;;5015809;28;20468;-71
2022/07/19 12:31:25;;;;;;;2.43;2.33;;;;;;;;;;5015821;28;20198;-71
2022/07/19 12:34:01;;;;;;;3.80;2.47;;;;;;;;;;5015690;28;20417;-71
2022/07/19 12:36:34;;;;;;;3.47;2.43;;;;;;;;;;5015535;28;20408;-70
2022/07/19 12:39:00;;;;;;;2.97;2.70;;;;;;;;;;5015583;28;20526;-71
2022/07/19 12:41:26;;;;;;;2.50;2.30;;;;;;;;;;5014435;28;20411;-70
2022/07/19 12:43:52;;;;;;;2.23;2.13;;;;;;;;;;5015591;28;20174;-70
2022/07/19 12:46:18;;;;;;;2.57;2.53;;;;;;;;;;5015537;28;20676;-69
2022/07/19 12:48:43;;;;;;;4.43;2.70;;;;;;;;;;5015265;28;20284;-70
2022/07/19 12:51:09;;;;;;;4.37;2.87;;;;;;;;;;5015718;28;20409;-70
2022/07/19 12:53:35;;;;;;;3.00;2.80;;;;;;;;;;5015402;28;20634;-70
2022/07/19 12:56:02;;;;;;;2.50;2.40;;;;;;;;;;5015356;28;20420;-70
2022/07/19 13:01:12;;;;;;;3.33;3.10;;;;;;;;;;5015218;28;20447;-70
2022/07/19 13:03:39;;;;;;;9.30;2.00;;;;;;;;;;4997575;28;20436;-70
2022/07/19 13:06:05;;;;;;;2.30;2.10;;;;;;;;;;5015163;28;20900;-69
2022/07/19 13:08:31;;;;;;;2.30;2.20;;;;;;;;;;5015235;28;20417;-70
2022/07/19 13:11:00;;;;;;;2.80;2.30;;;;;;;;;;5015090;28;20420;-70
2022/07/19 13:13:26;;;;;;;4.30;1.90;;;;;;;;;;5015099;28;20451;-70
2022/07/19 13:15:52;;;;;;;2.97;2.20;;;;;;;;;;5015092;28;20417;-70
2022/07/19 13:18:18;;;;;;;3.57;2.20;;;;;;;;;;5014841;28;20579;-70
2022/07/19 13:20:44;;;;;;;2.10;1.97;;;;;;;;;;5014847;28;20405;-70
2022/07/19 13:23:11;;;;;;;15.67;2.57;;;;;;;;;;5014899;28;20185;-71
2022/07/19 13:25:37;;;;;;;2.20;2.13;;;;;;;;;;5015083;28;20401;-71
2022/07/19 13:28:03;;;;;;;6.23;2.60;;;;;;;;;;5014668;28;20947;-70
2022/07/19 13:30:29;;;;;;;2.43;2.33;;;;;;;;;;5014731;28;20489;-71
2022/07/19 13:32:55;;;;;;;2.60;2.40;;;;;;;;;;5014627;28;20478;-71
2022/07/19 13:35:22;;;;;;;5.87;2.17;;;;;;;;;;5014442;28;20409;-70
2022/07/19 13:37:48;;;;;;;2.57;2.40;;;;;;;;;;5014585;28;20522;-70
2022/07/19 13:40:14;;;;;;;7.07;2.43;;;;;;;;;;5014534;28;20416;-70
2022/07/19 13:42:40;;;;;;;2.17;2.17;;;;;;;;;;5014550;28;20415;-70
2022/07/19 13:45:07;;;;;;;2.60;2.50;;;;;;;;;;5014523;28;20409;-69
2022/07/19 13:47:33;;;;;;;7.27;3.07;;;;;;;;;;5014229;28;20474;-70
2022/07/19 13:50:00;;;;;;;7.53;2.50;;;;;;;;;;5014266;28;20461;-71
2022/07/19 13:52:26;;;;;;;2.57;2.40;;;;;;;;;;5014441;28;20424;-71
2022/07/19 13:54:52;;;;;;;2.93;2.07;;;;;;;;;;4996573;28;20436;-70
2022/07/19 13:57:17;;;;;;;2.30;2.20;;;;;;;;;;5014177;28;20519;-70
2022/07/19 13:59:43;;;;;;;2.80;2.60;;;;;;;;;;5014285;28;20174;-70
2022/07/19 14:02:10;;;;;;;4.97;2.70;;;;;;;;;;5014092;28;20232;-68
2022/07/19 14:04:36;;;;;;;3.90;2.00;;;;;;;;;;5014136;28;20173;-69
2022/07/19 14:07:02;;;;;;;3.30;2.40;;;;;;;;;;5014357;28;20409;-70
2022/07/19 14:09:28;;;;;;;7.80;2.77;;;;;;;;;;5014288;28;20824;-70
2022/07/19 14:11:54;;;;;;;3.73;2.50;;;;;;;;;;5013982;28;20501;-69
2022/07/19 14:14:20;;;;;;;2.47;2.20;;;;;;;;;;5014052;28;20186;-70
2022/07/19 14:16:46;;;;;;;3.47;2.30;;;;;;;;;;5013938;28;20174;-71
2022/07/19 14:19:13;;;;;;;4.40;2.53;;;;;;;;;;5014185;28;20433;-69
2022/07/19 14:21:39;;;;;;;2.67;2.20;;;;;;;;;;5013933;28;20436;-68
2022/07/19 14:24:06;;;;;;;5.40;2.40;;;;;;;;;;5013868;28;20876;-68
2022/07/19 14:26:31;;;;;;;2.97;2.00;;;;;;;;;;5013908;28;20708;-68
2022/07/19 14:28:57;;;;;;;6.40;2.27;;;;;;;;;;4996208;28;20515;-67
2022/07/19 14:31:23;;;;;;;6.93;2.87;;;;;;;;;;5013851;28;20630;-68
2022/07/19 14:33:49;;;;;;;2.97;2.53;;;;;;;;;;5013691;28;20428;-68
2022/07/19 14:36:15;;;;;;;9.00;2.83;;;;;;;;;;4996127;28;20246;-69
2022/07/19 14:38:41;;;;;;;2.40;2.30;;;;;;;;;;4995991;28;20491;-68
2022/07/19 14:41:07;;;;;;;5.70;2.50;;;;;;;;;;5013663;28;20408;-69
2022/07/19 14:43:34;;;;;;;3.90;2.87;;;;;;;;;;5013646;28;20409;-68
2022/07/19 14:46:00;;;;;;;2.67;2.47;;;;;;;;;;5015979;28;20408;-69
2022/07/19 14:48:26;;;;;;;3.17;2.43;;;;;;;;;;5019765;28;20562;-69